Time;durP1;ratioP1;P1;durP2;ratioP2;P2;SDS_P1;SDS_P2;PMS_P1;PMS_P2;Temp;Humidity;BMP_temperature;BMP_pressure;BME280_temperature;BME280_humidity;BME280_pressure;Samples;Min_cycle;Max_cycle;Signal;HPM_P1;HPM_P2
2023/05/21 00:02:10;;;;;;;7.40;4.47;;;14.50;99.90;;;;;;7368738;19;20018;-59
2023/05/21 00:04:39;;;;;;;7.82;4.10;;;14.60;99.90;;;;;;7370357;19;20074;-58
2023/05/21 00:07:09;;;;;;;6.75;5.13;;;14.60;99.90;;;;;;7368095;19;20086;-59
2023/05/21 00:09:39;;;;;;;6.25;4.75;;;14.60;99.90;;;;;;7370494;19;20019;-59
2023/05/21 00:12:07;;;;;;;7.55;5.40;;;14.60;99.90;;;;;;7369175;19;20038;-59
2023/05/21 00:14:34;;;;;;;6.90;4.55;;;14.60;99.90;;;;;;7367452;19;20022;-59
2023/05/21 00:17:01;;;;;;;7.78;5.85;;;14.50;99.90;;;;;;7365131;19;20031;-59
2023/05/21 00:19:27;;;;;;;6.95;4.85;;;14.50;99.90;;;;;;7368043;19;20042;-58
2023/05/21 00:21:53;;;;;;;9.07;6.28;;;14.50;99.90;;;;;;7366855;19;20014;-59
2023/05/21 00:24:20;;;;;;;10.45;8.18;;;14.50;99.90;;;;;;7367854;19;20045;-63
2023/05/21 00:26:46;;;;;;;11.43;6.57;;;14.50;99.90;;;;;;7369350;19;20018;-59
2023/05/21 00:29:13;;;;;;;8.38;5.75;;;14.50;99.90;;;;;;7369046;19;20034;-59
2023/05/21 00:31:39;;;;;;;9.07;6.20;;;14.40;99.90;;;;;;7370489;19;20086;-59
2023/05/21 00:34:05;;;;;;;8.70;5.05;;;14.50;99.90;;;;;;7367221;19;20015;-60
2023/05/21 00:36:33;;;;;;;8.23;4.70;;;14.50;99.90;;;;;;7369787;19;20029;-59
2023/05/21 00:39:01;;;;;;;6.95;4.70;;;14.50;99.90;;;;;;7368009;19;20539;-59
2023/05/21 00:41:28;;;;;;;6.28;5.43;;;14.40;99.90;;;;;;7371342;19;20514;-59
2023/05/21 00:43:56;;;;;;;8.32;6.03;;;14.40;99.90;;;;;;7365731;19;20018;-61
2023/05/21 00:46:22;;;;;;;8.32;5.05;;;14.40;99.90;;;;;;7372875;19;20025;-58
2023/05/21 00:48:50;;;;;;;7.70;5.20;;;14.40;99.90;;;;;;7375042;19;20015;-58
2023/05/21 00:51:20;;;;;;;6.22;4.72;;;14.40;99.90;;;;;;7379098;19;20035;-58
2023/05/21 00:53:51;;;;;;;7.90;6.22;;;14.30;99.90;;;;;;7373038;19;20547;-58
2023/05/21 00:56:21;;;;;;;8.20;6.45;;;14.40;99.90;;;;;;7371761;19;20018;-57
2023/05/21 00:58:50;;;;;;;7.00;5.32;;;14.30;99.90;;;;;;7373720;19;20363;-59
2023/05/21 01:01:18;;;;;;;8.25;5.40;;;14.40;99.90;;;;;;7376956;19;20371;-58
2023/05/21 01:03:47;;;;;;;8.30;5.25;;;14.30;99.90;;;;;;7373551;19;20053;-58
2023/05/21 01:06:14;;;;;;;7.75;5.13;;;14.40;99.90;;;;;;7370722;19;20098;-58
2023/05/21 01:08:41;;;;;;;8.05;6.00;;;14.30;99.90;;;;;;7374145;19;20437;-58
2023/05/21 01:11:09;;;;;;;7.10;4.85;;;14.30;99.90;;;;;;7371756;19;20501;-59
2023/05/21 01:13:38;;;;;;;14.35;6.78;;;14.30;99.90;;;;;;7376347;19;20086;-58
2023/05/21 01:16:07;;;;;;;7.40;4.97;;;14.30;99.90;;;;;;7370595;19;20019;-69
2023/05/21 01:18:36;;;;;;;7.93;5.57;;;14.30;99.90;;;;;;7374676;19;20010;-69
2023/05/21 01:21:03;;;;;;;11.90;8.80;;;14.30;99.90;;;;;;7370244;19;20570;-70
2023/05/21 01:23:30;;;;;;;7.68;6.45;;;14.20;99.90;;;;;;7370796;19;20011;-70
2023/05/21 01:25:57;;;;;;;7.32;5.32;;;14.20;99.90;;;;;;7372439;19;20573;-70
2023/05/21 01:28:38;;;;;;;8.48;4.95;;;14.20;99.90;;;;;;7374344;19;20037;-69
2023/05/21 01:31:22;;;;;;;6.75;5.97;;;14.20;99.90;;;;;;7372345;19;20490;-68
2023/05/21 01:33:55;;;;;;;8.32;4.97;;;14.20;99.90;;;;;;7374313;19;20074;-68
2023/05/21 01:36:25;;;;;;;11.90;6.50;;;14.20;99.90;;;;;;7374176;19;20106;-58
2023/05/21 01:39:00;;;;;;;8.52;5.03;;;14.20;99.90;;;;;;7370753;19;20370;-58
2023/05/21 01:41:31;;;;;;;9.77;5.35;;;14.20;99.90;;;;;;7379195;19;20011;-58
2023/05/21 01:43:57;;;;;;;7.85;5.75;;;14.20;99.90;;;;;;7372977;19;20078;-58
2023/05/21 01:46:27;;;;;;;10.10;6.72;;;14.20;99.90;;;;;;7374030;19;20098;-59
2023/05/21 01:48:55;;;;;;;6.15;5.53;;;14.30;99.90;;;;;;7370576;19;20039;-68
2023/05/21 01:51:23;;;;;;;6.78;4.93;;;14.20;99.90;;;;;;7371529;19;20019;-58
2023/05/21 01:53:49;;;;;;;7.53;5.28;;;14.20;99.90;;;;;;7370172;19;20608;-59
2023/05/21 01:56:17;;;;;;;6.80;5.55;;;14.20;99.90;;;;;;7371179;19;20018;-59
2023/05/21 01:58:44;;;;;;;8.30;5.25;;;14.20;99.90;;;;;;7365983;19;20014;-69
2023/05/21 02:01:11;;;;;;;9.00;5.78;;;14.20;99.90;;;;;;7372707;19;20264;-69
2023/05/21 02:03:37;;;;;;;9.20;6.18;;;14.20;99.90;;;;;;7369447;19;20666;-58
2023/05/21 02:06:04;;;;;;;9.20;5.70;;;14.20;99.90;;;;;;7366042;19;20014;-58
2023/05/21 02:08:32;;;;;;;9.90;6.07;;;14.10;99.90;;;;;;7369295;19;20022;-68
2023/05/21 02:10:58;;;;;;;7.53;5.30;;;14.20;99.90;;;;;;7372298;19;20025;-58
2023/05/21 02:13:25;;;;;;;7.35;5.57;;;14.20;99.90;;;;;;7366471;19;20022;-58
2023/05/21 02:15:53;;;;;;;9.57;6.18;;;14.20;99.90;;;;;;7364591;19;20018;-69
2023/05/21 02:18:20;;;;;;;10.27;6.40;;;14.10;99.90;;;;;;7368639;19;20078;-59
2023/05/21 02:20:47;;;;;;;6.70;5.80;;;14.10;99.90;;;;;;7370975;19;20022;-58
2023/05/21 02:23:13;;;;;;;8.30;5.55;;;14.10;99.90;;;;;;7362952;19;20018;-69
2023/05/21 02:25:40;;;;;;;8.88;5.78;;;14.10;99.90;;;;;;7371694;19;20015;-69
2023/05/21 02:28:06;;;;;;;8.82;6.55;;;14.10;99.90;;;;;;7368780;19;20054;-69
2023/05/21 02:30:33;;;;;;;9.07;5.78;;;14.10;99.90;;;;;;7368182;19;20022;-69
2023/05/21 02:32:59;;;;;;;9.50;6.28;;;14.10;99.90;;;;;;7370930;19;20037;-68
2023/05/21 02:35:26;;;;;;;8.40;5.93;;;14.00;99.90;;;;;;7374842;19;20478;-69
2023/05/21 02:37:52;;;;;;;8.60;5.32;;;14.10;99.90;;;;;;7370899;19;20015;-69
2023/05/21 02:40:18;;;;;;;12.00;6.88;;;14.10;99.90;;;;;;7373625;19;20383;-69
2023/05/21 02:42:45;;;;;;;8.38;5.82;;;14.10;99.90;;;;;;7371456;19;20432;-59
2023/05/21 02:45:16;;;;;;;9.20;6.55;;;14.00;99.90;;;;;;7370769;19;20118;-58
2023/05/21 02:47:43;;;;;;;7.00;6.13;;;14.10;99.90;;;;;;7370685;19;20440;-58
2023/05/21 02:50:10;;;;;;;9.02;6.22;;;14.00;99.90;;;;;;7370021;19;21370;-58
2023/05/21 02:52:43;;;;;;;9.50;6.22;;;14.00;99.90;;;;;;7368542;19;20025;-68
2023/05/21 02:55:10;;;;;;;9.75;6.65;;;14.00;99.90;;;;;;7372976;19;20466;-68
2023/05/21 02:57:36;;;;;;;9.50;6.40;;;14.00;99.90;;;;;;7372573;19;20025;-69
2023/05/21 03:00:08;;;;;;;9.55;7.00;;;14.00;99.90;;;;;;7371840;19;20490;-69
2023/05/21 03:02:34;;;;;;;8.95;6.68;;;14.00;99.90;;;;;;7373831;19;20537;-69
2023/05/21 03:05:01;;;;;;;10.32;6.75;;;14.00;99.90;;;;;;7369505;19;20040;-68
2023/05/21 03:07:28;;;;;;;9.25;6.90;;;14.00;99.90;;;;;;7372625;19;20022;-69
2023/05/21 03:09:55;;;;;;;9.48;7.15;;;14.00;99.90;;;;;;7371952;19;20019;-69
2023/05/21 03:12:21;;;;;;;10.40;7.15;;;14.00;99.90;;;;;;7370531;19;20443;-69
2023/05/21 03:14:50;;;;;;;12.10;7.35;;;14.00;99.90;;;;;;7370255;19;20082;-69
2023/05/21 03:17:17;;;;;;;9.30;6.50;;;14.00;99.90;;;;;;7369150;19;20356;-68
2023/05/21 03:19:44;;;;;;;10.90;7.93;;;14.00;99.90;;;;;;7367882;19;20386;-58
2023/05/21 03:22:10;;;;;;;11.85;7.45;;;14.00;99.90;;;;;;7369974;19;20882;-69
2023/05/21 03:24:38;;;;;;;9.07;7.40;;;13.90;99.90;;;;;;7369435;19;20018;-69
2023/05/21 03:27:06;;;;;;;10.85;7.15;;;14.00;99.90;;;;;;7370134;19;20014;-68
2023/05/21 03:29:33;;;;;;;10.65;6.53;;;14.00;99.90;;;;;;7369363;19;20026;-69
2023/05/21 03:32:01;;;;;;;11.23;7.32;;;13.90;99.90;;;;;;7371321;19;20087;-69
2023/05/21 03:34:29;;;;;;;9.75;7.05;;;13.90;99.90;;;;;;7369366;19;20022;-69
2023/05/21 03:36:55;;;;;;;9.10;6.72;;;13.90;99.90;;;;;;7370373;19;20029;-70
2023/05/21 03:39:22;;;;;;;12.02;7.10;;;13.90;99.90;;;;;;7370083;19;20014;-69
2023/05/21 03:41:48;;;;;;;9.23;6.70;;;13.90;99.90;;;;;;7372100;19;20022;-69
2023/05/21 03:44:31;;;;;;;9.35;6.95;;;13.90;99.90;;;;;;7369665;19;20529;-68
2023/05/21 03:47:13;;;;;;;9.52;6.80;;;13.90;99.90;;;;;;7370163;19;20010;-69
2023/05/21 03:49:39;;;;;;;10.13;7.32;;;13.90;99.90;;;;;;7371275;19;20018;-69
2023/05/21 03:52:07;;;;;;;9.32;7.18;;;13.90;99.90;;;;;;7370302;19;20561;-68
2023/05/21 03:54:35;;;;;;;10.20;6.38;;;13.90;99.90;;;;;;7371317;19;20573;-69
2023/05/21 03:57:05;;;;;;;11.48;6.93;;;13.90;99.90;;;;;;7368609;19;20022;-69
2023/05/21 03:59:32;;;;;;;9.52;6.68;;;13.90;99.90;;;;;;7367599;19;20014;-69
2023/05/21 04:01:59;;;;;;;8.15;6.47;;;13.90;99.90;;;;;;7366353;19;20558;-70
2023/05/21 04:04:28;;;;;;;9.68;7.07;;;13.90;99.90;;;;;;7370642;19;20367;-68
2023/05/21 04:06:54;;;;;;;8.55;5.93;;;13.90;99.90;;;;;;7369866;19;20018;-68
2023/05/21 04:09:23;;;;;;;9.57;6.28;;;13.90;99.90;;;;;;7369969;19;20141;-69
2023/05/21 04:11:51;;;;;;;10.45;6.35;;;13.90;99.90;;;;;;7369648;19;20025;-68
2023/05/21 04:14:20;;;;;;;8.55;6.25;;;13.90;99.90;;;;;;7372314;19;20482;-69
2023/05/21 04:16:47;;;;;;;9.93;6.32;;;13.90;99.90;;;;;;7365870;19;20022;-69
2023/05/21 04:19:14;;;;;;;10.07;6.53;;;14.00;99.90;;;;;;7365824;19;20524;-58
2023/05/21 04:21:40;;;;;;;8.88;6.85;;;14.00;99.90;;;;;;7374296;19;20121;-57
2023/05/21 04:24:08;;;;;;;8.65;6.20;;;13.90;99.90;;;;;;7368518;19;20010;-58
2023/05/21 04:27:00;;;;;;;9.95;6.45;;;14.00;99.90;;;;;;7369864;19;20014;-58
2023/05/21 04:29:30;;;;;;;9.70;6.45;;;14.00;99.90;;;;;;7370668;19;20093;-58
2023/05/21 04:31:56;;;;;;;8.95;6.07;;;14.00;99.90;;;;;;7371829;19;20022;-58
2023/05/21 04:34:23;;;;;;;8.13;5.75;;;14.00;99.90;;;;;;7372315;19;20504;-57
2023/05/21 04:36:53;;;;;;;10.38;6.47;;;14.00;99.90;;;;;;7372559;19;20100;-68
2023/05/21 04:39:19;;;;;;;10.65;5.55;;;14.00;99.90;;;;;;7372178;19;20018;-68
2023/05/21 04:41:49;;;;;;;10.35;6.60;;;14.00;99.90;;;;;;7373594;19;20481;-58
2023/05/21 04:44:18;;;;;;;12.70;6.78;;;14.00;99.90;;;;;;7374243;19;20054;-59
2023/05/21 04:46:45;;;;;;;9.77;6.35;;;14.00;99.90;;;;;;7371084;19;20125;-59
2023/05/21 04:49:12;;;;;;;10.15;5.85;;;14.00;99.90;;;;;;7367611;19;20574;-70
2023/05/21 04:51:38;;;;;;;11.05;5.65;;;14.10;99.90;;;;;;7372317;19;20015;-70
2023/05/21 04:54:05;;;;;;;8.93;5.68;;;14.10;99.90;;;;;;7369991;19;20463;-70
2023/05/21 04:56:32;;;;;;;8.88;6.25;;;14.10;99.90;;;;;;7369323;19;20022;-69
2023/05/21 04:58:58;;;;;;;9.18;5.60;;;14.10;99.90;;;;;;7366295;19;20454;-69
2023/05/21 05:01:26;;;;;;;7.28;5.47;;;14.10;99.90;;;;;;7369056;19;20018;-68
2023/05/21 05:03:52;;;;;;;11.35;6.43;;;14.10;99.90;;;;;;7367174;19;20019;-68
2023/05/21 05:06:18;;;;;;;11.07;6.18;;;14.20;99.90;;;;;;7368003;19;20567;-58
2023/05/21 05:08:45;;;;;;;9.82;5.70;;;14.20;99.90;;;;;;7368309;19;20388;-59
2023/05/21 05:11:15;;;;;;;7.20;5.57;;;14.20;99.90;;;;;;7365653;19;20069;-58
2023/05/21 05:13:42;;;;;;;11.02;6.00;;;14.30;99.90;;;;;;7365875;19;20015;-58
2023/05/21 05:16:08;;;;;;;8.25;6.03;;;14.40;99.90;;;;;;7366952;19;20023;-58
2023/05/21 05:18:37;;;;;;;10.55;6.13;;;14.40;99.90;;;;;;7369554;19;20035;-58
2023/05/21 05:21:04;;;;;;;14.20;6.07;;;14.40;99.90;;;;;;7368854;19;20490;-58
2023/05/21 05:23:51;;;;;;;9.95;6.03;;;14.50;99.90;;;;;;7368529;19;20064;-58
2023/05/21 05:26:41;;;;;;;8.32;5.70;;;14.50;99.90;;;;;;7372447;19;20058;-68
2023/05/21 05:29:27;;;;;;;9.15;5.38;;;14.60;99.90;;;;;;7371810;19;20018;-69
2023/05/21 05:32:13;;;;;;;11.00;6.18;;;14.60;99.90;;;;;;7368231;19;20019;-69
2023/05/21 05:34:41;;;;;;;11.55;5.47;;;14.60;99.90;;;;;;7369268;19;20296;-70
2023/05/21 05:37:07;;;;;;;10.05;5.57;;;14.60;99.90;;;;;;7371229;19;20026;-69
2023/05/21 05:39:39;;;;;;;7.40;5.57;;;14.70;99.90;;;;;;7371816;19;20015;-68
2023/05/21 05:42:05;;;;;;;8.77;5.80;;;14.70;99.90;;;;;;7371153;19;20573;-58
2023/05/21 05:44:32;;;;;;;8.32;6.10;;;14.80;99.90;;;;;;7373501;19;20030;-69
2023/05/21 05:46:58;;;;;;;7.82;5.20;;;14.90;99.90;;;;;;7370379;19;20029;-69
2023/05/21 05:49:26;;;;;;;8.60;5.50;;;14.90;99.90;;;;;;7367914;19;20021;-69
2023/05/21 05:51:52;;;;;;;7.50;5.43;;;14.90;99.90;;;;;;7368290;19;20022;-69
2023/05/21 05:54:18;;;;;;;6.90;4.97;;;14.90;99.90;;;;;;7372128;19;20404;-69
2023/05/21 05:56:45;;;;;;;10.20;5.70;;;14.90;99.90;;;;;;7369198;19;20198;-68
2023/05/21 05:59:16;;;;;;;8.98;5.50;;;14.90;99.90;;;;;;7364387;19;20466;-58
2023/05/21 06:01:50;;;;;;;7.80;5.10;;;15.00;99.90;;;;;;7364182;19;20018;-69
2023/05/21 06:04:17;;;;;;;11.15;5.93;;;15.00;99.90;;;;;;7365661;19;20010;-58
2023/05/21 06:06:43;;;;;;;9.07;5.38;;;15.00;99.90;;;;;;7360249;19;20019;-58
2023/05/21 06:09:09;;;;;;;8.10;5.13;;;15.00;99.90;;;;;;7365032;19;20484;-58
2023/05/21 06:11:37;;;;;;;10.00;5.22;;;15.00;99.90;;;;;;7360855;19;20306;-59
2023/05/21 06:14:03;;;;;;;8.60;5.07;;;15.10;99.90;;;;;;7367711;19;20388;-58
2023/05/21 06:16:30;;;;;;;9.90;5.18;;;15.10;99.90;;;;;;7360674;19;20451;-69
2023/05/21 06:18:57;;;;;;;7.75;4.95;;;15.10;99.90;;;;;;7366489;19;20086;-58
2023/05/21 06:21:23;;;;;;;8.52;4.90;;;15.20;99.90;;;;;;7360604;19;20018;-59
2023/05/21 06:23:49;;;;;;;7.10;5.40;;;15.20;99.90;;;;;;7364989;19;20422;-59
2023/05/21 06:26:27;;;;;;;9.55;4.32;;;15.30;99.90;;;;;;7366786;19;20029;-59
2023/05/21 06:28:53;;;;;;;7.20;4.70;;;15.40;99.90;;;;;;7368351;19;20381;-58
2023/05/21 06:31:23;;;;;;;10.95;4.82;;;15.50;99.90;;;;;;7366178;19;20101;-58
2023/05/21 06:33:50;;;;;;;9.38;5.18;;;15.60;99.90;;;;;;7365671;19;20029;-58
2023/05/21 06:36:20;;;;;;;8.07;4.97;;;15.70;99.90;;;;;;7369274;19;20035;-69
2023/05/21 06:38:47;;;;;;;9.30;5.00;;;15.90;99.90;;;;;;7366663;19;20035;-68
2023/05/21 06:41:14;;;;;;;8.50;4.90;;;16.00;99.90;;;;;;7367759;19;20471;-69
2023/05/21 06:43:53;;;;;;;8.80;4.68;;;16.10;99.90;;;;;;7363510;19;21340;-68
2023/05/21 06:46:38;;;;;;;8.02;4.60;;;16.20;99.90;;;;;;7369323;19;20094;-69
2023/05/21 06:49:07;;;;;;;7.32;4.70;;;16.40;99.90;;;;;;7363262;19;20019;-64
2023/05/21 06:51:54;;;;;;;9.05;5.53;;;16.50;99.90;;;;;;7367234;19;22308;-58
2023/05/21 06:54:21;;;;;;;8.60;6.13;;;16.60;99.90;;;;;;7365191;19;20019;-58
2023/05/21 06:56:47;;;;;;;9.48;5.78;;;16.50;99.90;;;;;;7369486;19;20493;-60
2023/05/21 06:59:16;;;;;;;14.48;11.23;;;16.60;99.90;;;;;;7367453;19;20046;-58
2023/05/21 07:01:43;;;;;;;15.82;10.82;;;16.60;99.90;;;;;;7370179;19;20382;-58
2023/05/21 07:04:10;;;;;;;11.90;8.45;;;16.70;99.90;;;;;;7362608;19;20674;-58
2023/05/21 07:06:37;;;;;;;13.13;9.68;;;16.70;99.90;;;;;;7367546;19;20021;-59
2023/05/21 07:09:07;;;;;;;13.38;8.65;;;16.80;99.90;;;;;;7367215;19;20498;-58
2023/05/21 07:11:34;;;;;;;11.43;7.05;;;16.70;99.90;;;;;;7370125;19;20533;-58
2023/05/21 07:14:02;;;;;;;7.85;4.68;;;16.90;99.90;;;;;;7368726;19;20018;-59
2023/05/21 07:16:38;;;;;;;11.32;6.63;;;17.00;99.90;;;;;;7371902;19;20493;-60
2023/05/21 07:19:04;;;;;;;7.80;4.60;;;17.00;99.90;;;;;;7369626;19;20351;-62
2023/05/21 07:21:31;;;;;;;10.00;6.00;;;17.00;99.90;;;;;;7371063;19;20078;-59
2023/05/21 07:23:58;;;;;;;9.95;4.53;;;17.10;99.90;;;;;;7365779;19;20010;-59
2023/05/21 07:26:25;;;;;;;15.68;12.38;;;17.10;99.90;;;;;;7371585;19;20355;-71
2023/05/21 07:28:52;;;;;;;9.95;6.78;;;17.10;99.90;;;;;;7370281;19;20791;-59
2023/05/21 07:31:19;;;;;;;8.73;6.30;;;17.10;99.90;;;;;;7367581;19;20693;-59
2023/05/21 07:33:48;;;;;;;8.77;5.68;;;17.20;99.90;;;;;;7368160;19;20038;-59
2023/05/21 07:36:16;;;;;;;7.97;4.88;;;17.30;99.90;;;;;;7369568;19;20023;-60
2023/05/21 07:38:46;;;;;;;11.90;5.53;;;17.30;99.90;;;;;;7366038;19;21533;-59
2023/05/21 07:41:15;;;;;;;9.10;6.82;;;17.30;99.90;;;;;;7366754;19;20018;-70
2023/05/21 07:43:42;;;;;;;6.95;4.82;;;17.40;99.90;;;;;;7367334;19;20015;-69
2023/05/21 07:46:09;;;;;;;8.90;4.72;;;17.60;99.90;;;;;;7370914;19;20061;-69
2023/05/21 07:48:35;;;;;;;11.13;7.60;;;17.70;99.90;;;;;;7367824;19;20039;-70
2023/05/21 07:51:04;;;;;;;11.68;5.18;;;17.70;99.90;;;;;;7366698;19;20014;-70
2023/05/21 07:53:32;;;;;;;15.23;11.75;;;17.80;99.90;;;;;;7359371;19;20612;-70
2023/05/21 07:56:00;;;;;;;11.43;5.72;;;17.90;99.90;;;;;;7367542;19;20161;-70
2023/05/21 07:58:29;;;;;;;11.13;7.80;;;18.10;99.90;;;;;;7369050;19;20351;-69
2023/05/21 08:00:57;;;;;;;17.15;11.20;;;18.10;99.90;;;;;;7365295;19;20011;-58
2023/05/21 08:03:25;;;;;;;15.68;12.85;;;18.00;99.90;;;;;;7362129;19;20022;-70
2023/05/21 08:05:52;;;;;;;15.25;9.65;;;18.10;99.90;;;;;;7365478;19;20042;-70
2023/05/21 08:08:19;;;;;;;26.65;21.48;;;18.10;99.90;;;;;;7365407;19;20104;-59
2023/05/21 08:10:46;;;;;;;15.02;7.95;;;18.10;99.90;;;;;;7370915;19;20047;-58
2023/05/21 08:13:17;;;;;;;12.67;8.63;;;18.20;99.90;;;;;;7365310;19;20490;-70
2023/05/21 08:15:47;;;;;;;13.18;8.75;;;18.20;99.90;;;;;;7372467;19;20019;-61
2023/05/21 08:18:16;;;;;;;9.50;6.28;;;18.20;99.90;;;;;;7368229;19;20018;-69
2023/05/21 08:20:44;;;;;;;20.80;16.83;;;18.10;99.90;;;;;;7366149;19;20027;-70
2023/05/21 08:23:11;;;;;;;14.63;7.95;;;18.00;99.90;;;;;;7363649;19;20504;-58
2023/05/21 08:25:44;;;;;;;8.13;4.82;;;18.10;99.90;;;;;;7365644;19;20026;-58
2023/05/21 08:28:11;;;;;;;7.60;4.93;;;18.20;99.90;;;;;;7367045;19;20264;-58
2023/05/21 08:30:37;;;;;;;6.93;4.45;;;18.30;99.90;;;;;;7363595;19;20014;-59
2023/05/21 08:33:05;;;;;;;12.55;9.70;;;18.30;99.90;;;;;;7365894;19;20505;-58
2023/05/21 08:35:33;;;;;;;12.13;10.35;;;18.40;99.90;;;;;;7364384;19;20872;-58
2023/05/21 08:38:16;;;;;;;9.70;5.20;;;18.40;99.90;;;;;;7366650;19;20018;-59
2023/05/21 08:41:06;;;;;;;16.25;14.27;;;18.30;99.90;;;;;;7363972;19;20644;-58
2023/05/21 08:43:36;;;;;;;7.32;4.80;;;18.50;99.90;;;;;;7358188;19;21349;-58
2023/05/21 08:46:03;;;;;;;7.63;4.55;;;18.70;99.90;;;;;;7364031;19;20019;-58
2023/05/21 08:48:37;;;;;;;13.93;8.15;;;18.70;99.90;;;;;;7365463;19;20486;-60
2023/05/21 08:51:04;;;;;;;8.70;5.80;;;18.80;99.90;;;;;;7362893;19;20511;-61
2023/05/21 08:53:35;;;;;;;;;;;18.90;99.90;;;;;;7363908;19;20018;-61
2023/05/21 08:56:05;;;;;;;8.55;5.15;;;18.60;99.90;;;;;;7361066;19;20027;-71
2023/05/21 08:58:45;;;;;;;9.27;6.00;;;18.70;99.90;;;;;;7370852;19;20475;-70
2023/05/21 09:01:19;;;;;;;11.60;7.60;;;18.90;99.90;;;;;;7369269;19;20018;-71
2023/05/21 09:03:51;;;;;;;11.27;8.35;;;19.00;99.90;;;;;;7365398;19;20019;-70
2023/05/21 09:06:19;;;;;;;13.27;7.80;;;19.30;99.90;;;;;;7366567;19;20018;-71
2023/05/21 09:08:57;;;;;;;10.93;6.80;;;19.40;99.90;;;;;;7367811;19;20604;-71
2023/05/21 09:11:28;;;;;;;18.13;13.00;;;19.60;99.90;;;;;;7365158;19;20023;-71
2023/05/21 09:13:59;;;;;;;7.22;4.70;;;19.70;99.90;;;;;;7363928;19;20018;-71
2023/05/21 09:16:47;;;;;;;8.60;6.68;;;20.00;99.90;;;;;;7367963;19;20018;-66
2023/05/21 09:19:14;;;;;;;10.57;6.95;;;20.20;99.90;;;;;;7365440;19;20015;-67
2023/05/21 09:21:40;;;;;;;8.63;5.80;;;20.10;99.90;;;;;;7368330;19;20479;-59
2023/05/21 09:24:14;;;;;;;10.27;7.47;;;20.20;99.90;;;;;;7360383;19;20036;-59
2023/05/21 09:26:42;;;;;;;20.17;15.10;;;20.00;99.90;;;;;;7365186;19;20640;-58
2023/05/21 09:29:08;;;;;;;11.45;8.65;;;20.20;99.90;;;;;;7362019;19;20639;-59
2023/05/21 09:31:35;;;;;;;7.05;4.97;;;20.30;99.90;;;;;;7360599;19;20019;-58
2023/05/21 09:34:02;;;;;;;10.35;8.00;;;20.40;99.90;;;;;;7356994;19;20767;-58
2023/05/21 09:36:37;;;;;;;9.35;6.57;;;20.50;99.90;;;;;;7359667;19;20046;-58
2023/05/21 09:39:04;;;;;;;12.18;8.38;;;20.60;99.90;;;;;;7358127;19;20022;-58
2023/05/21 09:41:35;;;;;;;10.73;6.90;;;20.70;99.90;;;;;;7361473;19;20036;-58
2023/05/21 09:44:15;;;;;;;11.65;6.22;;;20.80;99.90;;;;;;7353486;19;20014;-58
2023/05/21 09:46:41;;;;;;;10.23;7.28;;;20.70;99.90;;;;;;7363117;19;20026;-57
2023/05/21 09:49:30;;;;;;;8.90;6.65;;;21.10;99.90;;;;;;7373098;19;20018;-58
2023/05/21 09:51:59;;;;;;;13.13;10.80;;;21.20;99.90;;;;;;7374174;19;20027;-59
2023/05/21 09:54:31;;;;;;;11.93;8.45;;;21.10;99.90;;;;;;7373251;19;20376;-58
2023/05/21 09:57:01;;;;;;;9.45;7.93;;;21.40;99.90;;;;;;7373795;19;20018;-58
2023/05/21 09:59:40;;;;;;;14.20;10.70;;;21.40;99.90;;;;;;7380203;19;20030;-69
2023/05/21 10:02:19;;;;;;;9.32;6.90;;;21.60;99.90;;;;;;7375201;19;20475;-58
2023/05/21 10:05:09;;;;;;;11.07;7.95;;;21.40;99.90;;;;;;7370206;19;20638;-58
2023/05/21 10:08:00;;;;;;;8.98;7.07;;;21.30;99.90;;;;;;7372647;19;20026;-60
2023/05/21 10:10:48;;;;;;;10.00;7.43;;;21.60;99.90;;;;;;7369745;19;20010;-59
2023/05/21 10:13:42;;;;;;;10.60;6.78;;;21.30;99.90;;;;;;7370594;19;20059;-59
2023/05/21 10:16:31;;;;;;;10.80;7.80;;;21.50;99.90;;;;;;7370543;19;20381;-60
2023/05/21 10:19:20;;;;;;;13.07;8.88;;;21.30;99.90;;;;;;7371443;19;20018;-59
2023/05/21 10:22:08;;;;;;;15.75;12.38;;;21.50;99.90;;;;;;7367133;19;20023;-59
2023/05/21 10:24:58;;;;;;;9.57;6.53;;;21.90;99.90;;;;;;7367288;19;20527;-62
2023/05/21 10:27:44;;;;;;;10.70;7.57;;;22.00;99.90;;;;;;7368774;19;20454;-61
2023/05/21 10:30:31;;;;;;;10.85;9.73;;;22.00;99.90;;;;;;7367775;19;20019;-61
2023/05/21 10:33:19;;;;;;;10.38;6.75;;;22.20;99.90;;;;;;7360077;19;20098;-61
2023/05/21 10:35:47;;;;;;;11.32;9.48;;;22.70;99.90;;;;;;7363682;19;20439;-60
2023/05/21 10:38:19;;;;;;;11.18;8.93;;;22.90;99.90;;;;;;7362146;19;20014;-59
2023/05/21 10:40:47;;;;;;;11.18;9.25;;;22.80;99.90;;;;;;7365772;19;20014;-61
2023/05/21 10:43:16;;;;;;;10.48;8.95;;;22.80;99.90;;;;;;7360850;19;20548;-60
2023/05/21 10:46:12;;;;;;;15.07;10.85;;;23.00;99.90;;;;;;7361540;19;20280;-60
2023/05/21 10:49:04;;;;;;;11.50;10.15;;;23.20;99.90;;;;;;7366649;19;20051;-68
2023/05/21 10:52:08;;;;;;;12.32;10.45;;;23.40;99.90;;;;;;7367043;19;20734;-70
2023/05/21 10:54:48;;;;;;;13.10;9.98;;;23.70;99.90;;;;;;7360878;19;20023;-60
2023/05/21 10:57:27;;;;;;;16.20;14.48;;;23.50;99.90;;;;;;7361907;19;20439;-60
2023/05/21 10:59:57;;;;;;;14.35;12.88;;;23.20;99.90;;;;;;7372158;19;20030;-70
2023/05/21 11:02:26;;;;;;;15.40;11.75;;;23.30;99.90;;;;;;7361898;19;20047;-60
2023/05/21 11:04:59;;;;;;;22.38;19.98;;;23.60;99.90;;;;;;7369147;19;20022;-70
2023/05/21 11:08:01;;;;;;;12.02;10.07;;;23.80;99.90;;;;;;7368322;19;20493;-70
2023/05/21 11:10:36;;;;;;;23.48;18.05;;;24.00;99.10;;;;;;7363994;19;20493;-59
2023/05/21 11:13:12;;;;;;;16.38;13.10;;;24.30;98.70;;;;;;7360662;19;20022;-59
2023/05/21 11:15:56;;;;;;;14.90;13.45;;;24.40;97.80;;;;;;7361427;19;20018;-61
2023/05/21 11:18:45;;;;;;;18.55;14.32;;;24.10;97.30;;;;;;7362425;19;20019;-59
2023/05/21 11:21:17;;;;;;;15.23;12.32;;;24.50;97.70;;;;;;7356386;19;20838;-60
2023/05/21 11:23:57;;;;;;;16.88;15.10;;;24.20;97.20;;;;;;7347788;19;20011;-59
2023/05/21 11:26:26;;;;;;;17.85;16.08;;;24.40;96.50;;;;;;7359063;19;20025;-60
2023/05/21 11:29:06;;;;;;;17.77;14.10;;;24.20;97.00;;;;;;7360527;19;20025;-59
2023/05/21 11:31:37;;;;;;;17.50;15.70;;;24.10;97.40;;;;;;7362796;19;20010;-61
2023/05/21 11:34:14;;;;;;;17.98;15.88;;;24.20;97.10;;;;;;7365162;19;20021;-70
2023/05/21 11:36:44;;;;;;;16.80;14.50;;;24.20;97.90;;;;;;7369174;19;20018;-70
2023/05/21 11:39:14;;;;;;;16.83;15.15;;;24.20;97.70;;;;;;7360150;19;20464;-60
2023/05/21 11:42:02;;;;;;;16.85;14.95;;;24.20;97.40;;;;;;7361778;19;20014;-62
2023/05/21 11:44:47;;;;;;;14.88;11.98;;;24.60;95.40;;;;;;7356375;19;20162;-59
2023/05/21 11:47:17;;;;;;;16.33;14.35;;;25.00;96.70;;;;;;7356925;19;20497;-59
2023/05/21 11:49:45;;;;;;;19.30;14.98;;;25.20;95.70;;;;;;7361051;19;20421;-60
2023/05/21 11:52:13;;;;;;;15.38;13.27;;;25.80;95.40;;;;;;7357244;19;20332;-59
2023/05/21 11:54:47;;;;;;;63.05;56.20;;;25.80;92.20;;;;;;7361633;19;20003;-66
2023/05/21 11:57:15;;;;;;;19.45;17.50;;;25.90;91.40;;;;;;7364515;19;20065;-65
2023/05/21 11:59:43;;;;;;;19.20;16.88;;;26.10;91.40;;;;;;7373928;19;20053;-72
2023/05/21 12:02:18;;;;;;;32.65;29.38;;;26.40;91.00;;;;;;7373952;19;20458;-74
2023/05/21 12:04:48;;;;;;;15.60;13.98;;;26.60;84.50;;;;;;7369527;19;20391;-74
2023/05/21 12:07:16;;;;;;;55.72;50.47;;;26.70;86.30;;;;;;7370924;19;20518;-74
2023/05/21 12:09:47;;;;;;;63.30;57.55;;;26.90;82.30;;;;;;7370198;19;20018;-69
2023/05/21 12:12:16;;;;;;;37.45;33.95;;;26.80;77.20;;;;;;7370384;19;20489;-74
2023/05/21 12:14:45;;;;;;;39.38;35.72;;;26.50;77.30;;;;;;7371865;19;20145;-74
2023/05/21 12:17:12;;;;;;;28.13;25.30;;;26.80;77.70;;;;;;7370971;19;20023;-75
2023/05/21 12:19:39;;;;;;;18.80;17.02;;;26.90;76.30;;;;;;7371065;19;20019;-77
2023/05/21 12:22:06;;;;;;;34.60;31.17;;;27.30;75.00;;;;;;7371803;19;20531;-77
2023/05/21 12:24:35;;;;;;;42.30;38.30;;;27.60;75.10;;;;;;7368152;19;20021;-77
2023/05/21 12:27:08;;;;;;;18.38;13.90;;;27.50;71.60;;;;;;7365424;19;20015;-77
2023/05/21 12:29:39;;;;;;;23.25;20.42;;;27.30;71.30;;;;;;7364701;19;20022;-78
2023/05/21 12:32:07;;;;;;;;;;;27.40;71.10;;;;;;7361522;19;20044;-77
2023/05/21 12:34:48;;;;;;;19.17;17.30;;;27.40;70.10;;;;;;7362976;19;20696;-77
2023/05/21 12:37:16;;;;;;;20.90;18.85;;;27.40;69.10;;;;;;7365959;19;20019;-77
2023/05/21 12:39:43;;;;;;;17.30;14.18;;;27.60;69.50;;;;;;7366896;19;20469;-77
2023/05/21 12:42:11;;;;;;;15.45;13.88;;;27.80;68.90;;;;;;7375341;19;20014;-77
2023/05/21 12:44:45;;;;;;;22.65;20.33;;;28.00;68.20;;;;;;7371049;19;20015;-72
2023/05/21 12:47:13;;;;;;;55.13;49.83;;;28.10;67.20;;;;;;7376669;19;20086;-77
2023/05/21 12:49:40;;;;;;;23.90;21.52;;;28.00;66.20;;;;;;7372979;19;20014;-77
2023/05/21 12:52:11;;;;;;;26.00;23.40;;;28.10;66.30;;;;;;7376778;19;20023;-66
2023/05/21 12:54:39;;;;;;;;;;;28.20;64.80;;;;;;7370378;19;20959;-68
2023/05/21 12:57:12;;;;;;;14.80;13.30;;;28.10;64.60;;;;;;7376933;19;20359;-67
2023/05/21 12:59:48;;;;;;;18.95;14.35;;;28.10;65.40;;;;;;7374256;19;20472;-74